createdAt,value
2018-06-29T00:00:34.340Z,101345.86
2018-06-29T00:02:39.289Z,101286.24
2018-06-29T00:04:44.278Z,101348.18
2018-06-29T00:06:49.008Z,101351.23
2018-06-29T00:08:53.819Z,101350.88
2018-06-29T00:10:58.529Z,101351.42
2018-06-29T00:13:03.503Z,101350.12
2018-06-29T00:15:08.276Z,101346.72
2018-06-29T00:17:13.208Z,101340.26
2018-06-29T00:19:18.176Z,101344.06
2018-06-29T00:21:23.017Z,101340.03
2018-06-29T00:23:27.891Z,101337.42
2018-06-29T00:25:32.630Z,101336.06
2018-06-29T00:27:37.487Z,101338.89
2018-06-29T00:29:42.292Z,101335.28
2018-06-29T00:31:47.066Z,101343.47
2018-06-29T00:33:51.846Z,101330.70
2018-06-29T00:35:56.609Z,101331.22
2018-06-29T00:38:01.495Z,101325.92
2018-06-29T00:40:06.305Z,101329.72
2018-06-29T00:42:11.085Z,101330.07
2018-06-29T00:44:15.910Z,101329.38
2018-06-29T00:46:20.785Z,101328.94
2018-06-29T00:48:25.572Z,101327.93
2018-06-29T00:50:30.470Z,101329.27
2018-06-29T00:52:35.342Z,101326.00
2018-06-29T00:54:40.433Z,101325.69
2018-06-29T00:56:45.215Z,101327.27
2018-06-29T00:58:49.613Z,101326.78
2018-06-29T01:00:54.664Z,101322.80
2018-06-29T01:02:59.481Z,101318.38
2018-06-29T01:05:04.396Z,101319.39
2018-06-29T01:07:09.206Z,101322.75
2018-06-29T01:09:14.277Z,101319.73
2018-06-29T01:11:19.084Z,101315.00
2018-06-29T01:13:23.932Z,101317.48
2018-06-29T01:15:28.684Z,101316.72
2018-06-29T01:17:33.542Z,101294.85
2018-06-29T01:19:38.351Z,101306.94
2018-06-29T01:21:43.286Z,101309.39
2018-06-29T01:23:47.973Z,101309.39
2018-06-29T01:25:52.767Z,101304.66
2018-06-29T01:27:57.643Z,101304.09
2018-06-29T01:30:02.518Z,101298.59
2018-06-29T01:32:07.365Z,101298.17
2018-06-29T01:34:12.218Z,101300.73
2018-06-29T01:36:16.901Z,101304.05
2018-06-29T01:38:21.679Z,101296.46
2018-06-29T01:40:26.498Z,101301.84
2018-06-29T01:42:30.962Z,101297.80
2018-06-29T01:44:35.696Z,101292.60
2018-06-29T01:46:40.571Z,101298.22
2018-06-29T01:51:00.249Z,101294.66
2018-06-29T01:53:05.194Z,101275.19
2018-06-29T01:55:10.174Z,101304.84
2018-06-29T01:57:15.052Z,101289.98
2018-06-29T01:59:20.157Z,101292.13
2018-06-29T02:01:25.098Z,101288.49
2018-06-29T02:03:29.988Z,101286.78
2018-06-29T02:05:34.819Z,101278.72
2018-06-29T02:07:39.569Z,101289.79
2018-06-29T02:11:59.521Z,101294.73
2018-06-29T02:14:04.565Z,101299.58
2018-06-29T02:16:09.682Z,101293.31
2018-06-29T02:18:14.515Z,101282.66
2018-06-29T02:20:19.688Z,101282.41
2018-06-29T02:22:24.521Z,101298.63
2018-06-29T02:24:29.406Z,101292.57
2018-06-29T02:26:34.274Z,101299.80
2018-06-29T02:28:39.152Z,101215.91
2018-06-29T02:30:44.186Z,101293.86
2018-06-29T02:32:49.325Z,101292.47
2018-06-29T02:34:54.408Z,101287.25
2018-06-29T02:36:59.225Z,101288.70
2018-06-29T02:39:05.043Z,101286.02
2018-06-29T02:41:10.057Z,101283.12
2018-06-29T02:43:14.822Z,101280.87
2018-06-29T02:45:19.753Z,101281.67
2018-06-29T02:47:24.453Z,101280.28
2018-06-29T02:49:29.329Z,101280.28
2018-06-29T02:51:34.302Z,101281.13
2018-06-29T02:53:39.119Z,101283.56
2018-06-29T02:55:44.297Z,101281.63
2018-06-29T02:57:49.234Z,101285.97
2018-06-29T02:59:54.025Z,101240.36
2018-06-29T03:01:58.966Z,101269.81
2018-06-29T03:04:03.845Z,101289.41
2018-06-29T03:06:09.106Z,101287.91
2018-06-29T03:08:14.131Z,101198.68
2018-06-29T03:10:18.961Z,101273.01
2018-06-29T03:12:23.934Z,101289.73
2018-06-29T03:14:28.822Z,101282.94
2018-06-29T03:16:33.583Z,101288.78
2018-06-29T03:18:38.518Z,101283.38
2018-06-29T03:20:43.620Z,101286.14
2018-06-29T03:22:48.670Z,101283.28
2018-06-29T03:24:53.737Z,101283.05
2018-06-29T03:26:58.729Z,101283.19
2018-06-29T03:29:03.601Z,101287.86
2018-06-29T03:31:08.141Z,101303.72
2018-06-29T03:33:12.588Z,101293.95
2018-06-29T03:35:17.357Z,101298.54
2018-06-29T03:37:22.140Z,101291.88
2018-06-29T03:39:27.119Z,101283.91
2018-06-29T03:41:32.027Z,101293.22
2018-06-29T03:43:36.862Z,101281.98
2018-06-29T03:45:41.724Z,101276.44
2018-06-29T03:47:46.683Z,101272.28
2018-06-29T03:49:51.489Z,101275.56
2018-06-29T03:51:56.336Z,101271.41
2018-06-29T03:54:01.194Z,101276.77
2018-06-29T03:56:06.249Z,101279.48
2018-06-29T03:58:10.705Z,101279.34
2018-06-29T04:00:15.538Z,101280.55
2018-06-29T04:02:20.594Z,101276.85
2018-06-29T04:04:25.391Z,101278.29
2018-06-29T04:06:30.215Z,101273.44
2018-06-29T04:08:35.179Z,101274.17
2018-06-29T04:12:54.963Z,101262.84
2018-06-29T04:14:59.363Z,101278.61
2018-06-29T04:17:04.206Z,101277.92
2018-06-29T04:19:09.066Z,101269.83
2018-06-29T04:23:24.953Z,101271.03
2018-06-29T04:25:29.865Z,101274.13
2018-06-29T04:27:34.959Z,101273.94
2018-06-29T04:29:40.311Z,101263.95
2018-06-29T04:31:45.169Z,101267.47
2018-06-29T04:33:49.969Z,101264.88
2018-06-29T04:35:54.793Z,101261.45
2018-06-29T04:37:59.525Z,101265.20
2018-06-29T04:40:04.889Z,101272.09
2018-06-29T04:42:09.943Z,101274.49
2018-06-29T04:44:14.847Z,101273.10
2018-06-29T04:46:19.692Z,101274.03
2018-06-29T04:48:24.553Z,101279.02
2018-06-29T04:50:29.523Z,101276.94
2018-06-29T04:52:34.340Z,101274.17
2018-06-29T04:54:39.381Z,101274.08
2018-06-29T04:56:44.309Z,101272.05
2018-06-29T04:58:49.282Z,101281.48
2018-06-29T05:00:55.312Z,101269.86
2018-06-29T05:03:00.280Z,101269.27
2018-06-29T05:05:05.314Z,101274.26
2018-06-29T05:07:10.843Z,101265.48
2018-06-29T05:09:15.803Z,101234.19
2018-06-29T05:11:20.748Z,101261.36
2018-06-29T05:13:27.080Z,101269.28
2018-06-29T05:15:31.967Z,101267.55
2018-06-29T05:17:36.743Z,101267.75
2018-06-29T05:19:41.693Z,101272.93
2018-06-29T05:21:46.561Z,101267.97
2018-06-29T05:23:51.693Z,101270.56
2018-06-29T05:25:56.583Z,101273.78
2018-06-29T05:28:01.748Z,101273.41
2018-06-29T05:30:17.178Z,101273.25
2018-06-29T05:32:22.161Z,101270.03
2018-06-29T05:34:28.088Z,101277.09
2018-06-29T05:36:33.017Z,101277.76
2018-06-29T05:38:37.928Z,101273.75
2018-06-29T05:40:43.016Z,101278.64
2018-06-29T05:42:49.140Z,101276.93
2018-06-29T05:44:54.062Z,101277.02
2018-06-29T05:46:58.968Z,101284.75
2018-06-29T05:49:03.921Z,101275.67
2018-06-29T05:51:08.840Z,101284.12
2018-06-29T05:53:13.759Z,101280.23
2018-06-29T05:55:19.428Z,101291.79
2018-06-29T05:57:25.506Z,101274.94
2018-06-29T05:59:30.897Z,101290.57
2018-06-29T06:01:35.727Z,101293.72
2018-06-29T06:03:40.572Z,101286.52
2018-06-29T06:05:45.424Z,101289.19
2018-06-29T06:07:50.484Z,101285.27
2018-06-29T06:09:55.498Z,101275.96
2018-06-29T06:12:00.494Z,101247.80
2018-06-29T06:14:05.982Z,101282.68
2018-06-29T06:16:10.822Z,101279.52
2018-06-29T06:18:15.600Z,101288.86
2018-06-29T06:20:20.473Z,101287.33
2018-06-29T06:22:25.320Z,101278.63
2018-06-29T06:24:30.298Z,101283.66
2018-06-29T06:26:35.519Z,101290.31
2018-06-29T06:28:40.549Z,101289.81
2018-06-29T06:30:45.459Z,101289.93
2018-06-29T06:32:50.482Z,101301.65
2018-06-29T06:34:55.437Z,101305.20
2018-06-29T06:37:00.394Z,101288.36
2018-06-29T06:39:08.547Z,101303.08
2018-06-29T06:41:13.489Z,101300.34
2018-06-29T06:43:18.316Z,101297.81
2018-06-29T06:45:23.083Z,101300.55
2018-06-29T06:47:27.867Z,101295.74
2018-06-29T06:49:37.045Z,101310.83
2018-06-29T06:51:42.014Z,101304.37
2018-06-29T06:53:46.914Z,101312.89
2018-06-29T06:55:51.892Z,101313.55
2018-06-29T06:57:56.891Z,101314.52
2018-06-29T07:00:01.735Z,101315.01
2018-06-29T07:02:06.838Z,101313.38
2018-06-29T07:04:11.472Z,101275.89
2018-06-29T07:06:16.312Z,101313.97
2018-06-29T07:08:21.241Z,101310.33
2018-06-29T07:10:26.251Z,101306.81
2018-06-29T07:12:31.267Z,101298.97
2018-06-29T07:14:36.129Z,101294.62
2018-06-29T07:16:41.076Z,101294.25
2018-06-29T07:18:46.059Z,101299.20
2018-06-29T07:20:50.989Z,101301.80
2018-06-29T07:22:55.854Z,101293.80
2018-06-29T07:25:00.776Z,101299.58
2018-06-29T07:27:05.753Z,101282.79
2018-06-29T07:29:10.832Z,101291.56
2018-06-29T07:31:15.782Z,101284.59
2018-06-29T07:33:21.174Z,101281.14
2018-06-29T07:35:25.680Z,101280.47
2018-06-29T07:37:30.912Z,101260.37
2018-06-29T07:39:36.004Z,101281.13
2018-06-29T07:41:41.140Z,101282.97
2018-06-29T07:43:45.893Z,101279.41
2018-06-29T07:45:50.834Z,101278.99
2018-06-29T07:47:55.807Z,101281.64
2018-06-29T07:50:00.743Z,101280.02
2018-06-29T07:52:05.575Z,101280.22
2018-06-29T07:54:10.646Z,101279.12
2018-06-29T07:56:15.580Z,101280.77
2018-06-29T07:58:20.669Z,101278.76
2018-06-29T08:00:25.642Z,101278.27
2018-06-29T08:02:30.662Z,101278.37
2018-06-29T08:04:35.736Z,101280.27
2018-06-29T08:06:40.799Z,101282.80
2018-06-29T08:08:45.932Z,101281.59
2018-06-29T08:10:50.857Z,101253.75
2018-06-29T08:12:55.707Z,101273.17
2018-06-29T08:15:00.725Z,101287.59
2018-06-29T08:17:05.786Z,101287.67
2018-06-29T08:19:10.825Z,101284.50
2018-06-29T08:21:15.779Z,101282.17
2018-06-29T08:23:21.182Z,101282.19
2018-06-29T08:25:26.160Z,101282.23
2018-06-29T08:27:31.025Z,101274.05
2018-06-29T08:29:36.214Z,101274.47
2018-06-29T08:31:41.044Z,101261.55
2018-06-29T08:33:45.965Z,101258.05
2018-06-29T08:35:50.454Z,101256.91
2018-06-29T08:37:55.267Z,101257.02
2018-06-29T08:40:00.140Z,101220.69
2018-06-29T08:42:05.041Z,101261.11
2018-06-29T08:44:09.873Z,101260.24
2018-06-29T08:46:14.965Z,101251.56
2018-06-29T08:48:19.855Z,101237.66
2018-06-29T08:50:24.220Z,101256.42
2018-06-29T08:52:29.003Z,101256.36
2018-06-29T08:54:34.002Z,101255.52
2018-06-29T08:56:38.879Z,101252.10
2018-06-29T08:58:43.917Z,101242.02
2018-06-29T09:00:48.912Z,101250.92
2018-06-29T09:02:53.472Z,101249.16
2018-06-29T09:04:58.416Z,101239.59
2018-06-29T09:07:03.121Z,101244.38
2018-06-29T09:09:10.338Z,101242.66
2018-06-29T09:11:15.138Z,101233.08
2018-06-29T09:13:19.851Z,101240.94
2018-06-29T09:15:24.664Z,101247.05
2018-06-29T09:17:29.588Z,101241.81
2018-06-29T09:19:34.657Z,101241.78
2018-06-29T09:21:39.875Z,101242.27
2018-06-29T09:23:44.813Z,101243.13
2018-06-29T09:25:49.813Z,101238.78
2018-06-29T09:27:54.790Z,101220.88
2018-06-29T09:30:00.207Z,101204.30
2018-06-29T09:32:04.997Z,101241.03
2018-06-29T09:34:09.837Z,101237.09
2018-06-29T09:36:14.686Z,101224.84
2018-06-29T09:38:19.767Z,101237.50
2018-06-29T09:40:24.679Z,101240.14
2018-06-29T09:42:29.604Z,101234.90
2018-06-29T09:44:34.363Z,101234.03
2018-06-29T09:46:39.369Z,101233.59
2018-06-29T09:48:44.298Z,101233.58
2018-06-29T09:50:49.142Z,101222.65
2018-06-29T09:52:53.945Z,101230.95
2018-06-29T09:54:58.701Z,101214.33
2018-06-29T09:57:03.505Z,101220.44
2018-06-29T09:59:08.376Z,101223.50
2018-06-29T10:01:13.560Z,101206.89
2018-06-29T10:03:18.513Z,101216.05
2018-06-29T10:05:23.320Z,101221.73
2018-06-29T10:07:28.131Z,101214.77
2018-06-29T10:09:32.994Z,101222.17
2018-06-29T10:11:38.158Z,101213.85
2018-06-29T10:13:43.077Z,101216.91
2018-06-29T10:15:47.809Z,101213.37
2018-06-29T10:17:52.708Z,101216.05
2018-06-29T10:19:57.562Z,101217.38
2018-06-29T10:22:08.887Z,101216.05
2018-06-29T10:24:13.651Z,101202.91
2018-06-29T10:26:18.856Z,101211.20
2018-06-29T10:28:23.826Z,101198.48
2018-06-29T10:30:28.666Z,101200.64
2018-06-29T10:32:33.385Z,101204.92
2018-06-29T10:34:38.173Z,101207.98
2018-06-29T10:36:42.975Z,101197.46
2018-06-29T10:38:47.749Z,101149.04
2018-06-29T10:40:52.515Z,101188.17
2018-06-29T10:42:57.347Z,101185.52
2018-06-29T10:45:02.162Z,101194.72
2018-06-29T10:47:07.004Z,101193.81
2018-06-29T10:49:11.841Z,101195.95
2018-06-29T10:53:29.082Z,101183.84
2018-06-29T10:55:33.800Z,101188.55
2018-06-29T10:57:38.511Z,101183.24
2018-06-29T10:59:43.357Z,101189.37
2018-06-29T11:01:48.186Z,101185.44
2018-06-29T11:03:53.061Z,101158.05
2018-06-29T11:05:57.957Z,101177.00
2018-06-29T11:08:02.651Z,101169.11
2018-06-29T11:10:08.789Z,101170.11
2018-06-29T11:12:13.640Z,101160.42
2018-06-29T11:14:18.621Z,101167.46
2018-06-29T11:16:23.476Z,101168.38
2018-06-29T11:18:28.446Z,101170.03
2018-06-29T11:20:33.560Z,101160.45
2018-06-29T11:22:38.345Z,101162.06
2018-06-29T11:24:43.099Z,101167.73
2018-06-29T11:26:48.014Z,101162.86
2018-06-29T11:28:53.594Z,101160.97
2018-06-29T11:30:58.282Z,101159.69
2018-06-29T11:33:03.016Z,101163.23
2018-06-29T11:35:07.746Z,101163.56
2018-06-29T11:37:12.498Z,101156.26
2018-06-29T11:39:17.229Z,101144.70
2018-06-29T11:41:22.038Z,101143.83
2018-06-29T11:43:26.772Z,101148.66
2018-06-29T11:45:31.483Z,101154.39
2018-06-29T11:47:36.260Z,101148.97
2018-06-29T11:49:41.018Z,101142.81
2018-06-29T11:51:45.722Z,101126.72
2018-06-29T11:53:50.509Z,101144.09
2018-06-29T11:55:55.305Z,101133.28
2018-06-29T11:58:00.211Z,101089.67
2018-06-29T12:00:05.493Z,101137.95
2018-06-29T12:02:10.367Z,101135.84
2018-06-29T12:04:15.126Z,101133.50
2018-06-29T12:06:19.871Z,101125.61
2018-06-29T12:08:24.955Z,101127.88
2018-06-29T12:10:29.759Z,101116.13
2018-06-29T12:12:34.153Z,101119.91
2018-06-29T12:14:38.984Z,101113.17
2018-06-29T12:16:43.854Z,101119.53
2018-06-29T12:18:49.581Z,101106.73
2018-06-29T12:20:54.302Z,101111.70
2018-06-29T12:22:59.112Z,101105.50
2018-06-29T12:25:03.858Z,101098.95
2018-06-29T12:27:08.771Z,101102.95
2018-06-29T12:29:13.683Z,101092.97
2018-06-29T12:31:18.522Z,101088.37
2018-06-29T12:33:23.502Z,101066.30
2018-06-29T12:35:28.454Z,101089.25
2018-06-29T12:37:34.326Z,101086.59
2018-06-29T12:39:39.441Z,101089.48
2018-06-29T12:41:44.680Z,101092.52
2018-06-29T12:43:49.913Z,101097.27
2018-06-29T12:45:55.128Z,101080.94
2018-06-29T12:48:00.581Z,101054.80
2018-06-29T12:50:05.591Z,101063.83
2018-06-29T12:52:10.738Z,101065.91
2018-06-29T12:54:15.859Z,101067.92
2018-06-29T12:56:20.646Z,101062.44
2018-06-29T12:58:25.836Z,101073.98
2018-06-29T13:00:30.668Z,101072.70
2018-06-29T13:02:35.756Z,101068.22
2018-06-29T13:04:41.277Z,101029.08
2018-06-29T13:06:46.058Z,101057.27
2018-06-29T13:08:50.897Z,101048.28
2018-06-29T13:10:56.802Z,101047.46
2018-06-29T13:13:01.850Z,101041.59
2018-06-29T13:15:07.217Z,101047.11
2018-06-29T13:17:12.097Z,101047.56
2018-06-29T13:19:17.003Z,101047.14
2018-06-29T13:21:21.894Z,101047.68
2018-06-29T13:23:26.788Z,101047.68
2018-06-29T13:25:31.790Z,101047.73
2018-06-29T13:27:37.376Z,101039.55
2018-06-29T13:29:42.338Z,101041.09
2018-06-29T13:31:47.160Z,101037.95
2018-06-29T13:33:52.035Z,101035.36
2018-06-29T13:35:56.770Z,101036.38
2018-06-29T13:38:01.691Z,101027.81
2018-06-29T13:40:06.672Z,100975.24
2018-06-29T13:42:12.014Z,100833.86
2018-06-29T13:44:17.041Z,100876.61
2018-06-29T13:46:22.253Z,100826.63
2018-06-29T13:48:27.464Z,101030.83
2018-06-29T13:50:33.994Z,101024.97
2018-06-29T13:52:39.122Z,101014.59
2018-06-29T13:54:45.024Z,100895.86
2018-06-29T13:56:49.950Z,101011.50
2018-06-29T13:58:55.191Z,101016.58
2018-06-29T14:01:00.064Z,101013.11
2018-06-29T14:03:05.045Z,100994.04
2018-06-29T14:05:10.065Z,100996.55
2018-06-29T14:07:15.004Z,101013.56
2018-06-29T14:09:20.949Z,101004.91
2018-06-29T14:11:25.719Z,100984.50
2018-06-29T14:13:30.328Z,100764.41
2018-06-29T14:15:35.163Z,100998.55
2018-06-29T14:17:40.140Z,100972.19
2018-06-29T14:19:45.065Z,100999.14
2018-06-29T14:21:49.817Z,100995.11
2018-06-29T14:23:54.599Z,100988.27
2018-06-29T14:25:59.782Z,101004.06
2018-06-29T14:28:04.689Z,100982.72
2018-06-29T14:30:09.583Z,100987.45
2018-06-29T14:32:14.654Z,100989.70
2018-06-29T14:34:19.522Z,100984.88
2018-06-29T14:36:24.326Z,100984.08
2018-06-29T14:38:29.332Z,100993.02
2018-06-29T14:40:34.545Z,100896.77
2018-06-29T14:42:39.584Z,100984.73
2018-06-29T14:44:44.492Z,100942.85
2018-06-29T14:46:49.454Z,100987.32
2018-06-29T14:48:54.331Z,100984.08
2018-06-29T14:50:59.335Z,100977.23
2018-06-29T14:53:04.253Z,100983.65
2018-06-29T14:55:09.263Z,100968.94
2018-06-29T14:57:14.199Z,100974.55
2018-06-29T14:59:19.055Z,100963.79
2018-06-29T15:01:24.138Z,100959.78
2018-06-29T15:03:29.162Z,100969.44
2018-06-29T15:05:34.686Z,100960.57
2018-06-29T15:07:39.758Z,100904.87
2018-06-29T15:09:44.518Z,100922.25
2018-06-29T15:11:49.517Z,100947.02
2018-06-29T15:13:54.744Z,100947.77
2018-06-29T15:16:00.554Z,100947.02
2018-06-29T15:18:05.718Z,100938.50
2018-06-29T15:20:10.525Z,100937.40
2018-06-29T15:22:15.459Z,100936.12
2018-06-29T15:24:20.742Z,100953.53
2018-06-29T15:26:26.079Z,100932.50
2018-06-29T15:28:30.972Z,100936.34
2018-06-29T15:30:35.785Z,100936.79
2018-06-29T15:32:40.768Z,100932.80
2018-06-29T15:34:46.049Z,100925.72
2018-06-29T15:36:50.986Z,100921.80
2018-06-29T15:38:55.848Z,100933.52
2018-06-29T15:41:00.824Z,100919.80
2018-06-29T15:43:07.070Z,100925.91
2018-06-29T15:45:13.248Z,100931.41
2018-06-29T15:47:18.069Z,100924.91
2018-06-29T15:49:23.203Z,100929.99
2018-06-29T15:51:28.155Z,100923.14
2018-06-29T15:53:33.058Z,100929.00
2018-06-29T15:55:37.939Z,100918.05
2018-06-29T15:57:42.884Z,100919.42
2018-06-29T15:59:47.773Z,100918.55
2018-06-29T16:01:52.685Z,100898.53
2018-06-29T16:03:57.574Z,100920.81
2018-06-29T16:06:02.610Z,100905.61
2018-06-29T16:08:07.987Z,100908.84
2018-06-29T16:10:12.825Z,100916.22
2018-06-29T16:12:17.887Z,100908.67
2018-06-29T16:14:22.666Z,100912.20
2018-06-29T16:16:28.305Z,100911.67
2018-06-29T16:18:33.201Z,100910.77
2018-06-29T16:20:38.038Z,100915.77
2018-06-29T16:22:43.062Z,100913.48
2018-06-29T16:24:47.995Z,100915.63
2018-06-29T16:26:53.069Z,100906.67
2018-06-29T16:28:58.013Z,100905.08
2018-06-29T16:31:03.143Z,100905.91
2018-06-29T16:33:08.484Z,100906.09
2018-06-29T16:35:13.382Z,100905.28
2018-06-29T16:37:18.388Z,100905.95
2018-06-29T16:39:23.487Z,100893.17
2018-06-29T16:41:28.409Z,100905.14
2018-06-29T16:43:33.244Z,100908.14
2018-06-29T16:45:38.134Z,100901.58
2018-06-29T16:47:44.077Z,100902.92
2018-06-29T16:49:48.976Z,100907.75
2018-06-29T16:51:53.944Z,100903.62
2018-06-29T16:56:15.597Z,100886.91
2018-06-29T16:58:20.823Z,100872.73
2018-06-29T17:00:27.244Z,100904.16
2018-06-29T17:02:32.270Z,100910.38
2018-06-29T17:04:37.521Z,100911.23
2018-06-29T17:06:42.918Z,100916.00
2018-06-29T17:08:48.370Z,100911.69
2018-06-29T17:10:53.607Z,100908.19
2018-06-29T17:12:58.109Z,100912.12
2018-06-29T17:15:03.080Z,100914.28
2018-06-29T17:17:08.003Z,100911.14
2018-06-29T17:19:12.959Z,100913.59
2018-06-29T17:21:18.481Z,100912.17
2018-06-29T17:23:23.614Z,100920.56
2018-06-29T17:25:29.671Z,100911.92
2018-06-29T17:27:35.344Z,100910.97
2018-06-29T17:29:41.305Z,100913.73
2018-06-29T17:31:46.055Z,100906.39
2018-06-29T17:33:50.950Z,100910.14
2018-06-29T17:35:55.636Z,100890.36
2018-06-29T17:38:02.870Z,100901.44
2018-06-29T17:40:07.731Z,100905.87
2018-06-29T17:42:12.524Z,100908.07
2018-06-29T17:44:17.345Z,100904.66
2018-06-29T17:46:22.329Z,100908.13
2018-06-29T17:48:27.254Z,100896.14
2018-06-29T17:50:32.002Z,100902.70
2018-06-29T17:52:36.947Z,100904.83
2018-06-29T17:54:41.897Z,100904.09
2018-06-29T17:56:46.915Z,100900.66
2018-06-29T17:58:52.242Z,100903.09
2018-06-29T18:00:57.138Z,100902.11
2018-06-29T18:03:01.981Z,100900.02
2018-06-29T18:05:07.047Z,100897.83
2018-06-29T18:07:11.888Z,100898.39
2018-06-29T18:09:16.702Z,100901.23
2018-06-29T18:11:22.071Z,100886.53
2018-06-29T18:13:28.027Z,100786.34
2018-06-29T18:15:33.622Z,100898.44
2018-06-29T18:17:38.884Z,100805.84
2018-06-29T18:19:44.084Z,100891.88
2018-06-29T18:21:48.915Z,100888.88
2018-06-29T18:23:54.276Z,100889.33
2018-06-29T18:25:59.365Z,100891.31
2018-06-29T18:28:04.669Z,100769.72
2018-06-29T18:30:10.458Z,100892.58
2018-06-29T18:32:15.281Z,100894.70
2018-06-29T18:34:20.168Z,100888.44
2018-06-29T18:36:25.005Z,100885.88
2018-06-29T18:38:29.866Z,100889.69
2018-06-29T18:40:34.666Z,100890.70
2018-06-29T18:42:39.630Z,100884.51
2018-06-29T18:44:44.615Z,100884.27
2018-06-29T18:46:49.696Z,100877.42
2018-06-29T18:49:03.769Z,100888.23
2018-06-29T18:51:09.418Z,100700.78
2018-06-29T18:53:14.706Z,100714.45
2018-06-29T18:55:19.717Z,100891.20
2018-06-29T18:57:24.672Z,100889.62
2018-06-29T18:59:29.749Z,100890.25
2018-06-29T19:01:34.620Z,100880.68
2018-06-29T19:03:39.627Z,100892.11
2018-06-29T19:05:44.619Z,100875.34
2018-06-29T19:07:49.479Z,100889.06
2018-06-29T19:09:54.650Z,100888.64
2018-06-29T19:11:59.656Z,100748.92
2018-06-29T19:14:04.807Z,100894.48
2018-06-29T19:16:09.793Z,100886.68
2018-06-29T19:18:14.700Z,100886.44
2018-06-29T19:20:22.481Z,100887.78
2018-06-29T19:22:27.781Z,100894.03
2018-06-29T19:24:32.883Z,100893.38
2018-06-29T19:26:37.908Z,100890.87
2018-06-29T19:28:42.854Z,100897.52
2018-06-29T19:30:47.612Z,100895.45
2018-06-29T19:32:52.743Z,100898.17
2018-06-29T19:34:57.669Z,100894.58
2018-06-29T19:37:03.313Z,100893.78
2018-06-29T19:39:10.445Z,100903.94
2018-06-29T19:41:15.594Z,100780.50
2018-06-29T19:43:21.347Z,100891.91
2018-06-29T19:45:26.825Z,100904.60
2018-06-29T19:47:31.809Z,100859.36
2018-06-29T19:49:37.074Z,100905.53
2018-06-29T19:51:42.079Z,100903.86
2018-06-29T19:53:47.094Z,100860.81
2018-06-29T19:55:52.548Z,100856.63
2018-06-29T19:57:57.840Z,100890.54
2018-06-29T20:00:03.472Z,100905.44
2018-06-29T20:02:09.223Z,100902.44
2018-06-29T20:04:14.974Z,100908.95
2018-06-29T20:06:19.977Z,100909.53
2018-06-29T20:08:25.104Z,100907.80
2018-06-29T20:10:30.053Z,100812.07
2018-06-29T20:12:35.277Z,100900.06
2018-06-29T20:14:40.603Z,100914.46
2018-06-29T20:16:46.776Z,100917.09
2018-06-29T20:18:51.776Z,100927.98
2018-06-29T20:20:56.788Z,100853.55
2018-06-29T20:23:01.799Z,100847.47
2018-06-29T20:25:07.082Z,100921.06
2018-06-29T20:27:12.249Z,100711.66
2018-06-29T20:29:17.147Z,100928.55
2018-06-29T20:31:22.225Z,100928.55
2018-06-29T20:33:27.077Z,100932.08
2018-06-29T20:35:32.345Z,100930.77
2018-06-29T20:37:37.515Z,100846.26
2018-06-29T20:39:42.593Z,100930.81
2018-06-29T20:41:47.498Z,100933.86
2018-06-29T20:43:53.049Z,100750.02
2018-06-29T20:45:58.066Z,100932.93
2018-06-29T20:48:03.031Z,100933.39
2018-06-29T20:50:08.102Z,100821.40
2018-06-29T20:52:13.143Z,100888.09
2018-06-29T20:54:19.151Z,100934.70
2018-06-29T20:56:24.045Z,100922.95
2018-06-29T20:58:28.886Z,100939.08
2018-06-29T21:00:33.935Z,100902.02
2018-06-29T21:02:39.122Z,100944.74
2018-06-29T21:04:44.089Z,100946.02
2018-06-29T21:06:49.214Z,100946.45
2018-06-29T21:08:54.048Z,100946.01
2018-06-29T21:10:58.989Z,100920.25
2018-06-29T21:13:03.962Z,100896.27
2018-06-29T21:15:08.873Z,100942.47
2018-06-29T21:17:13.687Z,100950.72
2018-06-29T21:19:18.645Z,100933.27
2018-06-29T21:21:23.694Z,100945.91
2018-06-29T21:23:28.528Z,100943.30
2018-06-29T21:25:33.567Z,100901.42
2018-06-29T21:27:38.843Z,100839.84
2018-06-29T21:29:43.928Z,100940.18
2018-06-29T21:31:48.964Z,100947.14
2018-06-29T21:33:54.012Z,100883.44
2018-06-29T21:35:59.376Z,100943.58
2018-06-29T21:38:04.771Z,100943.16
2018-06-29T21:40:09.630Z,100944.48
2018-06-29T21:42:14.669Z,100950.12
2018-06-29T21:44:19.541Z,100954.49
2018-06-29T21:46:24.398Z,100945.30
2018-06-29T21:48:29.328Z,100942.27
2018-06-29T21:50:34.172Z,100947.85
2018-06-29T21:52:39.127Z,100943.05
2018-06-29T21:54:44.113Z,100943.44
2018-06-29T21:56:49.246Z,100961.30
2018-06-29T21:58:54.492Z,100930.25
2018-06-29T22:00:59.556Z,100951.25
2018-06-29T22:03:09.425Z,100876.17
2018-06-29T22:05:14.622Z,100835.52
2018-06-29T22:07:19.457Z,100677.11
2018-06-29T22:09:24.502Z,100953.66
2018-06-29T22:11:29.810Z,100959.77
2018-06-29T22:13:34.727Z,100956.68
2018-06-29T22:15:39.623Z,100952.34
2018-06-29T22:17:46.431Z,100962.33
2018-06-29T22:19:51.270Z,100953.59
2018-06-29T22:21:56.208Z,100813.37
2018-06-29T22:24:01.070Z,100962.66
2018-06-29T22:26:06.188Z,100953.95
2018-06-29T22:28:11.256Z,100955.96
2018-06-29T22:30:16.227Z,100957.69
2018-06-29T22:32:21.124Z,100959.37
2018-06-29T22:34:26.019Z,100938.36
2018-06-29T22:36:31.972Z,100917.81
2018-06-29T22:38:36.998Z,100940.48
2018-06-29T22:40:41.864Z,100949.20
2018-06-29T22:42:46.653Z,100942.12
2018-06-29T22:44:51.439Z,100944.69
2018-06-29T22:46:56.336Z,100949.02
2018-06-29T22:49:03.279Z,100940.75
2018-06-29T22:51:08.131Z,100948.02
2018-06-29T22:53:12.981Z,100934.01
2018-06-29T22:55:17.779Z,100928.67
2018-06-29T22:57:22.726Z,100949.65
2018-06-29T22:59:27.555Z,100949.63
2018-06-29T23:01:36.845Z,100943.16
2018-06-29T23:03:46.856Z,100944.67
2018-06-29T23:05:51.929Z,100944.66
2018-06-29T23:07:56.739Z,100947.22
2018-06-29T23:10:01.668Z,100945.94
2018-06-29T23:12:06.726Z,100936.05
2018-06-29T23:14:12.076Z,100951.66
2018-06-29T23:16:17.633Z,100917.19
2018-06-29T23:18:23.389Z,100860.85
2018-06-29T23:20:28.511Z,100939.23
2018-06-29T23:22:39.187Z,100942.21
2018-06-29T23:24:44.275Z,100945.11
2018-06-29T23:26:49.364Z,100935.61
2018-06-29T23:28:54.288Z,100949.50
2018-06-29T23:30:59.145Z,100938.45
2018-06-29T23:33:04.574Z,100953.09
2018-06-29T23:35:09.430Z,100910.83
2018-06-29T23:37:14.471Z,100948.23
2018-06-29T23:39:19.437Z,100804.88
2018-06-29T23:41:24.342Z,100950.72
2018-06-29T23:43:29.256Z,100941.91
2018-06-29T23:45:34.424Z,100945.77
2018-06-29T23:47:39.797Z,100802.02
2018-06-29T23:49:44.787Z,100954.86
2018-06-29T23:51:49.837Z,100840.72
2018-06-29T23:53:54.994Z,100920.78
2018-06-29T23:55:59.884Z,100912.75
2018-06-29T23:58:04.777Z,100938.02
